Time;durP1;ratioP1;P1;durP2;ratioP2;P2;SDS_P1;SDS_P2;PMS_P1;PMS_P2;Temp;Humidity;BMP_temperature;BMP_pressure;BME280_temperature;BME280_humidity;BME280_pressure;Samples;Min_cycle;Max_cycle;Signal;HPM_P1;HPM_P2
2022/12/03 00:01:51;;;;;;;;;28.25;25.75;;;;;;;;5038453;28;51502;-45
2022/12/03 00:04:35;;;;;;;;;27.50;23.75;;;;;;;;5041336;28;51375;-45
2022/12/03 00:07:19;;;;;;;;;27.25;24.50;;;;;;;;5041844;28;51049;-44
2022/12/03 00:10:04;;;;;;;;;26.50;25.25;;;;;;;;5041732;28;51246;-45
2022/12/03 00:12:48;;;;;;;;;24.00;21.00;;;;;;;;5041924;28;51717;-44
2022/12/03 00:15:33;;;;;;;;;21.75;19.00;;;;;;;;5041102;28;51193;-43
2022/12/03 00:18:17;;;;;;;;;23.75;22.25;;;;;;;;5041878;28;51041;-44
2022/12/03 00:21:02;;;;;;;;;27.00;24.25;;;;;;;;5039520;28;51452;-45
2022/12/03 00:23:46;;;;;;;;;25.25;24.25;;;;;;;;5041322;28;51153;-43
2022/12/03 00:26:30;;;;;;;;;26.25;24.00;;;;;;;;5041696;28;51632;-48
2022/12/03 00:29:15;;;;;;;;;32.75;27.50;;;;;;;;5028951;28;51478;-46
2022/12/03 00:31:59;;;;;;;;;24.50;24.25;;;;;;;;5041252;28;51186;-46
2022/12/03 00:34:44;;;;;;;;;31.25;27.50;;;;;;;;5040957;28;51026;-44
2022/12/03 00:37:28;;;;;;;;;26.50;24.50;;;;;;;;5039894;28;51540;-46
2022/12/03 00:40:13;;;;;;;;;30.00;28.50;;;;;;;;5040958;28;51247;-48
2022/12/03 00:42:57;;;;;;;;;33.00;26.50;;;;;;;;5041814;28;51133;-45
2022/12/03 00:45:41;;;;;;;;;30.25;25.75;;;;;;;;5041510;28;51436;-48
2022/12/03 00:48:26;;;;;;;;;22.50;19.75;;;;;;;;5040258;28;51098;-46
2022/12/03 00:51:10;;;;;;;;;28.25;23.00;;;;;;;;5040709;28;51522;-45
2022/12/03 00:53:55;;;;;;;;;28.00;25.75;;;;;;;;5037984;28;51068;-48
2022/12/03 00:56:39;;;;;;;;;25.75;24.25;;;;;;;;5041018;28;51116;-45
2022/12/03 00:59:23;;;;;;;;;24.25;22.00;;;;;;;;5039165;28;51410;-45
2022/12/03 01:02:08;;;;;;;;;23.00;22.50;;;;;;;;5039996;28;51224;-46
2022/12/03 01:04:52;;;;;;;;;27.25;22.75;;;;;;;;5040408;28;51200;-44
2022/12/03 01:07:36;;;;;;;;;24.00;22.50;;;;;;;;5040829;28;50937;-45
2022/12/03 01:10:20;;;;;;;;;27.75;21.25;;;;;;;;5040655;28;51256;-48
2022/12/03 01:13:05;;;;;;;;;26.50;22.25;;;;;;;;5040815;28;51083;-46
2022/12/03 01:15:49;;;;;;;;;28.75;27.25;;;;;;;;5040750;28;51583;-44
2022/12/03 01:18:33;;;;;;;;;30.25;24.75;;;;;;;;5041140;28;51633;-43
2022/12/03 01:21:18;;;;;;;;;30.75;24.25;;;;;;;;5039646;28;51016;-45
2022/12/03 01:24:03;;;;;;;;;27.75;26.25;;;;;;;;5040527;28;51253;-43
2022/12/03 01:26:47;;;;;;;;;30.75;27.00;;;;;;;;5040538;28;51184;-45
2022/12/03 01:29:31;;;;;;;;;27.50;23.75;;;;;;;;5040470;28;51109;-48
2022/12/03 01:32:16;;;;;;;;;36.75;29.00;;;;;;;;5040739;28;51156;-45
2022/12/03 01:35:00;;;;;;;;;33.75;28.25;;;;;;;;5040197;28;51110;-43
2022/12/03 01:37:44;;;;;;;;;27.75;24.00;;;;;;;;5040649;28;51121;-46
2022/12/03 01:40:29;;;;;;;;;28.25;26.25;;;;;;;;5040606;28;51271;-46
2022/12/03 01:43:13;;;;;;;;;38.75;30.00;;;;;;;;5040565;28;51008;-45
2022/12/03 01:45:57;;;;;;;;;32.00;27.25;;;;;;;;5039962;28;51541;-47
2022/12/03 01:48:42;;;;;;;;;27.75;25.50;;;;;;;;5040461;28;51117;-45
2022/12/03 01:51:28;;;;;;;;;25.00;24.00;;;;;;;;5040374;28;51463;-46
2022/12/03 01:54:17;;;;;;;;;30.75;28.75;;;;;;;;5039893;28;51389;-45
2022/12/03 01:57:01;;;;;;;;;31.25;24.75;;;;;;;;5039999;28;51196;-44
2022/12/03 01:59:46;;;;;;;;;28.50;25.00;;;;;;;;5039861;28;51153;-44
2022/12/03 02:02:31;;;;;;;;;28.75;25.00;;;;;;;;5040079;28;51132;-45
2022/12/03 02:05:16;;;;;;;;;25.50;22.75;;;;;;;;5039955;28;51052;-46
2022/12/03 02:08:01;;;;;;;;;26.25;25.25;;;;;;;;5039834;28;50971;-46
2022/12/03 02:10:45;;;;;;;;;28.50;22.75;;;;;;;;5039726;28;51431;-42
2022/12/03 02:13:30;;;;;;;;;24.50;21.00;;;;;;;;5039841;28;51112;-42
2022/12/03 02:16:14;;;;;;;;;28.25;23.50;;;;;;;;5039660;28;51135;-43
2022/12/03 02:18:59;;;;;;;;;27.00;25.75;;;;;;;;5039579;28;51108;-44
2022/12/03 02:21:53;;;;;;;;;22.50;21.75;;;;;;;;5039951;28;51035;-44
2022/12/03 02:25:01;;;;;;;;;21.75;21.50;;;;;;;;5039302;28;51145;-44
2022/12/03 02:27:46;;;;;;;;;22.50;22.00;;;;;;;;5025646;28;51132;-45
2022/12/03 02:30:31;;;;;;;;;22.25;22.00;;;;;;;;5039289;28;51171;-45
2022/12/03 02:33:15;;;;;;;;;27.50;23.50;;;;;;;;5039807;28;50994;-43
2022/12/03 02:35:59;;;;;;;;;23.50;23.25;;;;;;;;5039444;28;51444;-44
2022/12/03 02:38:44;;;;;;;;;25.25;22.00;;;;;;;;5039122;28;51164;-42
2022/12/03 02:44:31;;;;;;;;;25.00;22.50;;;;;;;;5038921;28;51085;-44
2022/12/03 02:47:16;;;;;;;;;23.00;21.00;;;;;;;;5039763;28;51110;-44
2022/12/03 02:50:01;;;;;;;;;23.25;18.50;;;;;;;;5039115;28;51404;-44
2022/12/03 02:52:45;;;;;;;;;26.00;20.00;;;;;;;;5039055;28;51243;-47
2022/12/03 02:55:31;;;;;;;;;22.00;19.75;;;;;;;;5039023;28;51098;-44
2022/12/03 02:58:16;;;;;;;;;23.75;19.00;;;;;;;;5039426;28;50944;-44
2022/12/03 03:01:01;;;;;;;;;22.25;19.75;;;;;;;;5039044;28;51544;-46
2022/12/03 03:03:46;;;;;;;;;18.75;17.00;;;;;;;;5039011;28;51148;-44
2022/12/03 03:06:31;;;;;;;;;27.50;19.75;;;;;;;;5039331;28;51405;-46
2022/12/03 03:09:15;;;;;;;;;23.25;20.25;;;;;;;;5038887;28;51228;-43
2022/12/03 03:12:00;;;;;;;;;18.50;18.25;;;;;;;;5039126;28;51082;-46
2022/12/03 03:14:44;;;;;;;;;21.75;20.50;;;;;;;;5038766;28;51635;-47
2022/12/03 03:17:28;;;;;;;;;22.00;18.75;;;;;;;;5039031;28;51118;-45
2022/12/03 03:20:13;;;;;;;;;21.50;19.75;;;;;;;;5039363;28;51062;-45
2022/12/03 03:23:04;;;;;;;;;25.25;20.00;;;;;;;;5038915;28;51090;-43
2022/12/03 03:25:53;;;;;;;;;21.50;20.00;;;;;;;;5038822;28;51139;-45
2022/12/03 03:28:39;;;;;;;;;21.50;18.00;;;;;;;;5039086;28;51158;-43
2022/12/03 03:31:23;;;;;;;;;23.25;20.25;;;;;;;;5039152;28;51114;-49
2022/12/03 03:34:08;;;;;;;;;25.25;23.00;;;;;;;;5038838;28;50975;-45
2022/12/03 03:36:53;;;;;;;;;24.00;19.25;;;;;;;;5052959;28;51160;-47
2022/12/03 03:39:37;;;;;;;;;25.50;22.75;;;;;;;;5042310;28;51089;-43
2022/12/03 03:42:22;;;;;;;;;24.50;23.50;;;;;;;;5042882;28;51098;-46
2022/12/03 03:45:07;;;;;;;;;23.75;19.75;;;;;;;;5042457;28;51117;-43
2022/12/03 03:47:52;;;;;;;;;23.75;17.00;;;;;;;;5042725;28;50965;-46
2022/12/03 03:50:37;;;;;;;;;21.50;21.50;;;;;;;;5042332;28;51445;-43
2022/12/03 03:53:22;;;;;;;;;24.00;21.00;;;;;;;;5042521;28;51152;-44
2022/12/03 03:56:07;;;;;;;;;25.50;22.75;;;;;;;;5042190;28;51595;-43
2022/12/03 03:58:51;;;;;;;;;27.50;22.00;;;;;;;;5042299;28;52748;-43
2022/12/03 04:01:36;;;;;;;;;23.75;19.75;;;;;;;;5042673;28;51066;-44
2022/12/03 04:04:21;;;;;;;;;24.25;20.50;;;;;;;;5042002;28;51470;-46
2022/12/03 04:07:06;;;;;;;;;22.75;20.25;;;;;;;;5042209;28;51125;-46
2022/12/03 04:09:50;;;;;;;;;24.50;20.00;;;;;;;;5042212;28;51034;-44
2022/12/03 04:15:37;;;;;;;;;22.50;20.25;;;;;;;;5041986;28;51042;-45
2022/12/03 04:24:27;;;;;;;;;24.75;21.25;;;;;;;;5041462;28;51039;-44
2022/12/03 04:36:03;;;;;;;;;28.50;24.75;;;;;;;;4999446;28;51246;-44
2022/12/03 04:38:48;;;;;;;;;20.75;18.25;;;;;;;;4999518;28;51145;-43
2022/12/03 04:41:32;;;;;;;;;24.25;21.75;;;;;;;;4999140;28;51381;-46
2022/12/03 04:44:35;;;;;;;;;23.75;23.25;;;;;;;;4999373;28;51129;-47
2022/12/03 04:47:20;;;;;;;;;22.50;21.50;;;;;;;;4999232;28;51371;-43
2022/12/03 04:50:05;;;;;;;;;26.50;23.50;;;;;;;;4998305;28;51217;-46
2022/12/03 04:52:49;;;;;;;;;27.75;25.00;;;;;;;;4999552;28;50993;-46
2022/12/03 04:55:33;;;;;;;;;26.75;22.50;;;;;;;;4998781;28;51476;-43
2022/12/03 04:58:17;;;;;;;;;28.25;24.25;;;;;;;;4999161;28;51161;-45
2022/12/03 05:01:01;;;;;;;;;25.00;21.75;;;;;;;;4997641;28;51243;-44
2022/12/03 05:03:45;;;;;;;;;23.50;22.25;;;;;;;;4998425;28;51042;-47
2022/12/03 05:06:30;;;;;;;;;20.50;19.00;;;;;;;;4998676;28;51464;-43
2022/12/03 05:09:14;;;;;;;;;21.25;20.25;;;;;;;;5009052;28;51184;-45
2022/12/03 05:11:59;;;;;;;;;20.25;17.25;;;;;;;;5041215;28;51075;-45
2022/12/03 05:14:43;;;;;;;;;19.00;17.75;;;;;;;;5040668;28;51112;-44
2022/12/03 05:17:27;;;;;;;;;20.50;17.00;;;;;;;;5041340;28;51057;-47
2022/12/03 05:23:15;;;;;;;;;18.25;17.25;;;;;;;;5041027;28;51109;-45
2022/12/03 05:25:59;;;;;;;;;21.50;16.75;;;;;;;;5040544;28;51116;-46
2022/12/03 05:28:44;;;;;;;;;19.25;16.75;;;;;;;;5040831;28;51007;-45
2022/12/03 05:31:28;;;;;;;;;24.50;19.75;;;;;;;;5040650;28;51138;-44
2022/12/03 05:34:13;;;;;;;;;19.00;17.00;;;;;;;;5040506;28;51460;-43
2022/12/03 05:36:57;;;;;;;;;23.50;20.00;;;;;;;;5040412;28;51178;-48
2022/12/03 05:39:41;;;;;;;;;22.75;20.00;;;;;;;;5039961;28;51187;-48
2022/12/03 05:45:29;;;;;;;;;19.50;17.50;;;;;;;;5040421;28;51346;-44
2022/12/03 05:48:14;;;;;;;;;22.00;18.75;;;;;;;;5040360;28;51038;-46
2022/12/03 05:50:59;;;;;;;;;20.75;18.25;;;;;;;;5039928;28;51390;-45
2022/12/03 05:53:43;;;;;;;;;21.75;19.25;;;;;;;;5040577;28;51078;-47
2022/12/03 05:56:27;;;;;;;;;22.75;19.75;;;;;;;;5040146;28;51225;-44
2022/12/03 05:59:12;;;;;;;;;20.00;17.50;;;;;;;;5039595;28;51570;-45
2022/12/03 06:01:57;;;;;;;;;19.75;18.00;;;;;;;;5035012;28;51855;-43
2022/12/03 06:04:41;;;;;;;;;25.25;19.50;;;;;;;;5037810;28;51193;-44
2022/12/03 06:07:25;;;;;;;;;19.25;19.00;;;;;;;;5041732;28;51192;-44
2022/12/03 06:10:11;;;;;;;;;21.50;19.75;;;;;;;;5038754;28;51409;-44
2022/12/03 06:12:56;;;;;;;;;26.25;20.75;;;;;;;;5039797;28;51121;-45
2022/12/03 06:15:40;;;;;;;;;25.00;22.00;;;;;;;;5039538;28;51084;-46
2022/12/03 06:18:25;;;;;;;;;25.50;22.00;;;;;;;;5039969;28;51425;-43
2022/12/03 06:21:09;;;;;;;;;23.25;21.00;;;;;;;;5039292;28;51522;-44
2022/12/03 06:23:53;;;;;;;;;23.00;20.00;;;;;;;;5039741;28;51141;-47
2022/12/03 06:26:37;;;;;;;;;25.75;22.50;;;;;;;;5039888;28;51413;-45
2022/12/03 06:29:22;;;;;;;;;20.50;18.50;;;;;;;;5039113;28;51054;-45
2022/12/03 06:32:06;;;;;;;;;21.50;19.00;;;;;;;;5039883;28;51025;-45
2022/12/03 06:34:51;;;;;;;;;27.25;21.00;;;;;;;;5039172;28;51053;-46
2022/12/03 06:37:35;;;;;;;;;25.25;20.75;;;;;;;;5038306;28;51029;-47
2022/12/03 06:40:37;;;;;;;;;29.00;20.50;;;;;;;;5015764;28;51119;-43
2022/12/03 06:43:21;;;;;;;;;24.50;21.25;;;;;;;;5039605;28;51101;-44
2022/12/03 06:46:05;;;;;;;;;27.25;19.00;;;;;;;;5039058;28;51431;-46
2022/12/03 06:48:50;;;;;;;;;28.00;20.25;;;;;;;;5036948;28;51197;-43
2022/12/03 06:51:35;;;;;;;;;23.25;22.75;;;;;;;;5036690;28;51538;-44
2022/12/03 06:54:19;;;;;;;;;21.50;20.25;;;;;;;;5039019;28;51199;-45
2022/12/03 06:57:03;;;;;;;;;23.00;17.75;;;;;;;;5039148;28;51036;-45
2022/12/03 06:59:48;;;;;;;;;25.75;23.00;;;;;;;;5038359;28;51173;-44
2022/12/03 07:02:32;;;;;;;;;25.00;19.25;;;;;;;;5037017;28;51624;-44
2022/12/03 07:05:17;;;;;;;;;23.50;19.00;;;;;;;;5038838;28;51443;-44
2022/12/03 07:08:01;;;;;;;;;32.50;24.50;;;;;;;;5039589;28;51056;-45
2022/12/03 07:10:46;;;;;;;;;27.75;24.00;;;;;;;;5038735;28;51476;-45
2022/12/03 07:13:30;;;;;;;;;22.50;21.00;;;;;;;;5042682;28;51188;-44
2022/12/03 07:16:15;;;;;;;;;26.75;24.00;;;;;;;;5043201;28;51547;-43
2022/12/03 07:18:59;;;;;;;;;29.00;22.00;;;;;;;;5042719;28;51203;-46
2022/12/03 07:21:43;;;;;;;;;29.25;22.00;;;;;;;;5042590;28;51094;-45
2022/12/03 07:24:28;;;;;;;;;26.75;22.75;;;;;;;;5040308;28;51464;-44
2022/12/03 07:27:12;;;;;;;;;26.00;21.00;;;;;;;;5042881;28;51524;-46
2022/12/03 07:29:57;;;;;;;;;23.50;19.00;;;;;;;;5042372;28;51161;-43
2022/12/03 07:32:41;;;;;;;;;26.75;22.50;;;;;;;;5042461;28;51173;-44
2022/12/03 07:35:26;;;;;;;;;32.25;25.75;;;;;;;;5039866;28;51089;-44
2022/12/03 07:38:10;;;;;;;;;23.00;21.00;;;;;;;;5042365;28;51102;-43
2022/12/03 07:40:55;;;;;;;;;22.25;18.50;;;;;;;;5042647;28;51199;-47
2022/12/03 07:43:39;;;;;;;;;24.75;19.00;;;;;;;;5042540;28;51039;-46
2022/12/03 07:46:23;;;;;;;;;24.75;20.00;;;;;;;;5042955;28;50977;-45
2022/12/03 07:49:08;;;;;;;;;22.75;18.00;;;;;;;;5042453;28;51532;-44
2022/12/03 07:51:53;;;;;;;;;22.25;17.25;;;;;;;;5042374;28;51470;-47
2022/12/03 07:54:37;;;;;;;;;21.50;17.75;;;;;;;;5042565;28;51054;-45
2022/12/03 07:57:22;;;;;;;;;22.25;17.50;;;;;;;;5042861;28;51053;-44
2022/12/03 08:00:06;;;;;;;;;25.25;20.25;;;;;;;;5041424;28;51548;-46
2022/12/03 08:02:51;;;;;;;;;22.50;21.25;;;;;;;;5041129;28;51166;-45
2022/12/03 08:05:35;;;;;;;;;20.25;20.25;;;;;;;;5041976;28;51033;-46
2022/12/03 08:08:20;;;;;;;;;22.00;18.25;;;;;;;;5039492;28;51104;-45
2022/12/03 08:11:05;;;;;;;;;28.75;21.25;;;;;;;;5041731;28;51137;-44
2022/12/03 08:13:49;;;;;;;;;26.00;22.25;;;;;;;;5040822;28;51466;-45
2022/12/03 08:16:35;;;;;;;;;21.50;20.75;;;;;;;;5041435;28;51433;-43
2022/12/03 08:19:20;;;;;;;;;21.50;19.00;;;;;;;;5041168;28;51220;-44
2022/12/03 08:22:14;;;;;;;;;25.25;18.00;;;;;;;;5041609;28;51170;-46
2022/12/03 08:24:58;;;;;;;;;26.50;24.50;;;;;;;;5037525;28;51274;-48
2022/12/03 08:27:43;;;;;;;;;26.50;21.25;;;;;;;;5041618;28;51187;-44
2022/12/03 08:30:27;;;;;;;;;20.50;19.75;;;;;;;;5041656;28;51059;-45
2022/12/03 08:33:29;;;;;;;;;21.25;18.00;;;;;;;;5041634;28;51163;-47
2022/12/03 08:36:21;;;;;;;;;22.50;19.00;;;;;;;;5042090;28;51105;-47
2022/12/03 08:39:24;;;;;;;;;30.25;26.75;;;;;;;;5041637;28;51649;-45
2022/12/03 08:45:38;;;;;;;;;30.25;24.75;;;;;;;;5041388;28;51061;-46
2022/12/03 08:48:33;;;;;;;;;23.25;21.50;;;;;;;;5041942;28;51151;-46
2022/12/03 08:51:23;;;;;;;;;20.75;18.25;;;;;;;;5041290;28;51540;-48
2022/12/03 08:54:12;;;;;;;;;25.00;22.25;;;;;;;;5041637;28;51040;-48
2022/12/03 08:56:56;;;;;;;;;26.25;23.00;;;;;;;;5041022;28;51061;-46
2022/12/03 08:59:40;;;;;;;;;29.25;28.25;;;;;;;;5040798;28;51162;-46
2022/12/03 09:02:32;;;;;;;;;24.25;18.25;;;;;;;;5041716;28;50952;-47
2022/12/03 09:05:21;;;;;;;;;22.50;19.25;;;;;;;;5041229;28;51121;-48
2022/12/03 09:08:05;;;;;;;;;28.25;21.75;;;;;;;;5040971;28;51071;-47
2022/12/03 09:10:50;;;;;;;;;24.75;20.25;;;;;;;;5040732;28;51029;-48
2022/12/03 09:13:34;;;;;;;;;22.75;19.25;;;;;;;;5041445;28;51010;-49
2022/12/03 09:16:19;;;;;;;;;20.25;18.25;;;;;;;;5040932;28;51135;-45
2022/12/03 09:19:03;;;;;;;;;24.75;20.75;;;;;;;;5040804;28;51209;-47
2022/12/03 09:21:48;;;;;;;;;20.25;18.00;;;;;;;;5040898;28;51543;-44
2022/12/03 09:24:32;;;;;;;;;18.50;16.75;;;;;;;;5040665;28;51175;-45
2022/12/03 09:27:16;;;;;;;;;19.00;17.25;;;;;;;;5041172;28;51101;-46
2022/12/03 09:30:01;;;;;;;;;23.25;19.75;;;;;;;;5040199;28;52196;-44
2022/12/03 09:32:45;;;;;;;;;24.75;22.75;;;;;;;;5040835;28;51381;-47
2022/12/03 09:35:29;;;;;;;;;33.50;29.00;;;;;;;;5040206;28;51098;-48
2022/12/03 09:38:14;;;;;;;;;24.50;18.00;;;;;;;;5040782;28;51116;-44
2022/12/03 09:40:58;;;;;;;;;21.75;19.50;;;;;;;;5040207;28;51056;-45
2022/12/03 09:43:43;;;;;;;;;25.00;20.50;;;;;;;;5040765;28;51133;-47
2022/12/03 09:46:28;;;;;;;;;15.50;10.00;;;;;;;;5040499;28;51415;-46
2022/12/03 09:49:13;;;;;;;;;18.25;18.25;;;;;;;;5040242;28;51041;-47
2022/12/03 09:51:59;;;;;;;;;17.50;16.75;;;;;;;;5040508;28;50956;-45
2022/12/03 09:54:43;;;;;;;;;19.25;18.00;;;;;;;;5040392;28;51532;-46
2022/12/03 09:57:28;;;;;;;;;17.75;17.00;;;;;;;;5040340;28;51434;-48
2022/12/03 10:00:17;;;;;;;;;19.75;17.25;;;;;;;;5039872;28;51053;-49
2022/12/03 10:03:03;;;;;;;;;22.00;21.25;;;;;;;;5040276;28;51103;-47
2022/12/03 10:05:48;;;;;;;;;19.75;15.75;;;;;;;;5039967;28;51374;-47
2022/12/03 10:08:32;;;;;;;;;17.50;17.50;;;;;;;;5040059;28;51152;-45
2022/12/03 10:11:18;;;;;;;;;20.75;14.00;;;;;;;;5039660;28;51342;-47
2022/12/03 10:14:03;;;;;;;;;19.50;18.00;;;;;;;;5039541;28;51097;-48
2022/12/03 10:16:47;;;;;;;;;17.75;15.00;;;;;;;;5040126;28;50986;-44
2022/12/03 10:19:34;;;;;;;;;13.75;13.75;;;;;;;;5039721;28;51164;-44
2022/12/03 10:22:18;;;;;;;;;17.75;14.75;;;;;;;;5039755;28;51421;-46
2022/12/03 10:25:06;;;;;;;;;18.00;18.00;;;;;;;;5039601;28;51115;-46
2022/12/03 10:28:00;;;;;;;;;13.50;12.75;;;;;;;;5040068;28;51060;-49
2022/12/03 10:31:04;;;;;;;;;15.50;13.75;;;;;;;;5039607;28;50975;-47
2022/12/03 10:33:56;;;;;;;;;14.50;12.00;;;;;;;;5039658;28;51133;-45
2022/12/03 10:36:41;;;;;;;;;14.00;14.00;;;;;;;;5039550;28;51058;-45
2022/12/03 10:39:25;;;;;;;;;15.75;14.50;;;;;;;;5039065;28;51165;-45
2022/12/03 10:42:17;;;;;;;;;12.50;12.50;;;;;;;;5039781;28;51047;-50
2022/12/03 10:45:11;;;;;;;;;15.75;13.00;;;;;;;;5039464;28;51102;-48
2022/12/03 10:48:03;;;;;;;;;17.50;15.25;;;;;;;;5038816;28;51149;-47
2022/12/03 10:50:55;;;;;;;;;15.00;13.25;;;;;;;;5039319;28;51167;-47
2022/12/03 10:53:40;;;;;;;;;19.00;15.75;;;;;;;;5039591;28;51093;-48
2022/12/03 10:56:25;;;;;;;;;18.75;15.75;;;;;;;;5038965;28;51528;-48
2022/12/03 10:59:13;;;;;;;;;15.75;14.25;;;;;;;;5039416;28;51081;-46
2022/12/03 11:01:58;;;;;;;;;13.25;13.25;;;;;;;;5039476;28;51024;-45
2022/12/03 11:04:42;;;;;;;;;19.50;15.25;;;;;;;;5038861;28;51101;-45
2022/12/03 11:07:26;;;;;;;;;20.50;15.50;;;;;;;;5039235;28;51109;-46
2022/12/03 11:10:15;;;;;;;;;15.50;15.00;;;;;;;;5039156;28;51128;-45
2022/12/03 11:13:18;;;;;;;;;12.25;11.25;;;;;;;;5039399;28;51207;-47
2022/12/03 11:16:04;;;;;;;;;16.00;13.75;;;;;;;;5039007;28;51082;-46
2022/12/03 11:19:11;;;;;;;;;18.25;15.25;;;;;;;;5039624;28;51176;-45
2022/12/03 11:22:04;;;;;;;;;19.50;16.00;;;;;;;;5024870;28;51599;-47
2022/12/03 11:25:08;;;;;;;;;18.25;15.00;;;;;;;;5039242;28;51110;-47
2022/12/03 11:28:11;;;;;;;;;17.50;15.50;;;;;;;;5039127;28;51366;-45
2022/12/03 11:30:57;;;;;;;;;16.75;16.00;;;;;;;;5038862;28;51101;-47
2022/12/03 11:33:43;;;;;;;;;14.50;12.75;;;;;;;;5038894;28;51153;-47
2022/12/03 11:36:27;;;;;;;;;21.50;15.75;;;;;;;;5038787;28;51165;-49
2022/12/03 11:39:12;;;;;;;;;18.75;16.25;;;;;;;;5038807;28;51116;-46
2022/12/03 11:42:24;;;;;;;;;18.25;14.00;;;;;;;;5038882;28;51065;-47
2022/12/03 11:45:08;;;;;;;;;18.50;18.50;;;;;;;;5039196;28;51272;-43
2022/12/03 11:47:58;;;;;;;;;16.00;12.25;;;;;;;;5038551;28;51272;-43
2022/12/03 11:50:50;;;;;;;;;16.25;14.25;;;;;;;;5038617;28;51261;-47
2022/12/03 11:53:34;;;;;;;;;20.00;16.00;;;;;;;;5038742;28;51042;-46
2022/12/03 11:56:21;;;;;;;;;19.25;14.25;;;;;;;;5038811;28;51172;-46
2022/12/03 11:59:11;;;;;;;;;17.00;16.00;;;;;;;;5041668;28;51059;-46
2022/12/03 12:01:58;;;;;;;;;15.75;13.50;;;;;;;;5042014;28;51263;-44
2022/12/03 12:04:45;;;;;;;;;14.00;14.00;;;;;;;;5041256;28;51396;-47
2022/12/03 12:07:33;;;;;;;;;18.25;14.75;;;;;;;;5041422;28;51632;-45
2022/12/03 12:10:36;;;;;;;;;14.50;12.25;;;;;;;;5042173;28;51135;-49
2022/12/03 12:13:30;;;;;;;;;20.25;15.00;;;;;;;;5042007;28;51056;-48
2022/12/03 12:16:34;;;;;;;;;21.00;18.00;;;;;;;;5041869;28;51088;-48
2022/12/03 12:19:37;;;;;;;;;17.75;16.00;;;;;;;;5041885;28;51436;-48
2022/12/03 12:22:24;;;;;;;;;17.75;16.50;;;;;;;;5041811;28;51113;-44
2022/12/03 12:25:26;;;;;;;;;15.25;12.75;;;;;;;;5042184;28;51006;-48
2022/12/03 12:28:11;;;;;;;;;20.50;16.75;;;;;;;;5041927;28;51053;-47
2022/12/03 12:30:55;;;;;;;;;20.50;17.25;;;;;;;;5041673;28;51551;-49
2022/12/03 12:33:39;;;;;;;;;16.50;15.25;;;;;;;;5041783;28;51178;-49
2022/12/03 12:36:24;;;;;;;;;19.00;17.25;;;;;;;;5042280;28;51093;-49
2022/12/03 12:39:12;;;;;;;;;16.75;16.00;;;;;;;;5041445;28;51616;-47
2022/12/03 12:41:57;;;;;;;;;18.50;15.50;;;;;;;;5041519;28;51128;-47
2022/12/03 12:44:41;;;;;;;;;13.25;13.00;;;;;;;;5041753;28;51189;-46
2022/12/03 12:47:27;;;;;;;;;14.25;12.75;;;;;;;;5041571;28;51014;-48
2022/12/03 12:50:12;;;;;;;;;11.25;10.00;;;;;;;;5041551;28;51180;-47
2022/12/03 12:53:00;;;;;;;;;6.00;4.50;;;;;;;;5041298;28;51203;-46
2022/12/03 12:55:44;;;;;;;;;15.00;11.50;;;;;;;;5041611;28;51113;-44
2022/12/03 12:58:30;;;;;;;;;12.75;11.75;;;;;;;;5041250;28;51002;-47
2022/12/03 13:01:23;;;;;;;;;14.00;11.50;;;;;;;;5041657;28;51161;-48
2022/12/03 13:04:26;;;;;;;;;10.50;10.00;;;;;;;;5040901;28;51159;-48
2022/12/03 13:07:11;;;;;;;;;13.50;13.00;;;;;;;;5041050;28;51610;-45
2022/12/03 13:09:56;;;;;;;;;12.25;10.75;;;;;;;;5040373;28;51077;-45
2022/12/03 13:12:40;;;;;;;;;14.25;13.00;;;;;;;;5041319;28;51097;-46
2022/12/03 13:15:43;;;;;;;;;14.25;12.50;;;;;;;;5041091;28;51435;-46
2022/12/03 13:18:33;;;;;;;;;13.75;13.50;;;;;;;;5041146;28;51047;-46
2022/12/03 13:21:32;;;;;;;;;10.25;10.00;;;;;;;;5040927;28;51101;-44
2022/12/03 13:24:28;;;;;;;;;14.50;14.50;;;;;;;;5040769;28;51083;-45
2022/12/03 13:27:12;;;;;;;;;12.00;11.50;;;;;;;;5040897;28;51063;-46
2022/12/03 13:30:14;;;;;;;;;19.50;18.00;;;;;;;;5040349;28;51469;-45
2022/12/03 13:33:00;;;;;;;;;17.50;14.75;;;;;;;;5040470;28;51069;-48
2022/12/03 13:35:45;;;;;;;;;16.00;12.50;;;;;;;;5040819;28;51169;-46
2022/12/03 13:38:30;;;;;;;;;13.50;13.50;;;;;;;;5040489;28;51129;-46
2022/12/03 13:44:20;;;;;;;;;16.75;15.00;;;;;;;;5040410;28;51163;-45
2022/12/03 13:47:10;;;;;;;;;14.00;10.25;;;;;;;;5040418;28;51543;-45
2022/12/03 13:50:04;;;;;;;;;15.75;13.75;;;;;;;;5040197;28;51102;-46
2022/12/03 13:52:48;;;;;;;;;9.25;9.25;;;;;;;;5040600;28;50932;-46
2022/12/03 13:55:32;;;;;;;;;13.00;13.00;;;;;;;;5040138;28;51436;-46
2022/12/03 13:58:17;;;;;;;;;19.00;13.75;;;;;;;;5040003;28;51129;-45
2022/12/03 14:01:01;;;;;;;;;18.00;13.50;;;;;;;;5040008;28;51427;-47
2022/12/03 14:03:45;;;;;;;;;16.25;14.00;;;;;;;;5040301;28;51104;-45
2022/12/03 14:06:32;;;;;;;;;12.75;12.75;;;;;;;;5040121;28;51559;-45
2022/12/03 14:09:16;;;;;;;;;17.00;13.00;;;;;;;;5039760;28;51193;-45
2022/12/03 14:15:04;;;;;;;;;12.75;10.50;;;;;;;;5039648;28;51213;-45
2022/12/03 14:17:48;;;;;;;;;15.25;12.00;;;;;;;;5040219;28;50952;-47
2022/12/03 14:20:33;;;;;;;;;17.00;13.00;;;;;;;;5039676;28;51027;-44
2022/12/03 14:23:17;;;;;;;;;16.00;12.25;;;;;;;;5039171;28;50993;-45
2022/12/03 14:26:02;;;;;;;;;18.75;14.00;;;;;;;;5039640;28;51054;-45
2022/12/03 14:28:46;;;;;;;;;14.25;13.50;;;;;;;;5039913;28;51103;-45
2022/12/03 14:31:30;;;;;;;;;11.25;11.25;;;;;;;;5039584;28;51094;-45
2022/12/03 14:34:15;;;;;;;;;16.00;14.00;;;;;;;;5052666;28;51087;-48
2022/12/03 14:36:59;;;;;;;;;18.00;15.75;;;;;;;;5039983;28;51379;-47
2022/12/03 14:39:44;;;;;;;;;14.50;11.75;;;;;;;;5039034;28;51122;-47
2022/12/03 14:42:28;;;;;;;;;16.50;13.75;;;;;;;;5039648;28;51049;-46
2022/12/03 14:45:13;;;;;;;;;12.00;12.00;;;;;;;;5039264;28;51173;-44
2022/12/03 14:47:57;;;;;;;;;16.25;15.50;;;;;;;;5039501;28;51016;-46
2022/12/03 14:50:49;;;;;;;;;14.75;14.25;;;;;;;;4997271;28;51472;-46
2022/12/03 14:53:33;;;;;;;;;16.00;15.00;;;;;;;;4997464;28;51031;-48
2022/12/03 14:56:18;;;;;;;;;19.00;15.50;;;;;;;;4996825;28;51486;-48
2022/12/03 14:59:02;;;;;;;;;16.00;16.00;;;;;;;;4997334;28;51116;-45
2022/12/03 15:01:46;;;;;;;;;16.00;14.50;;;;;;;;4997241;28;51280;-49
2022/12/03 15:04:31;;;;;;;;;16.75;16.25;;;;;;;;4997019;28;51015;-48
2022/12/03 15:07:15;;;;;;;;;14.50;14.25;;;;;;;;4997248;28;51558;-46
2022/12/03 15:09:59;;;;;;;;;14.50;14.50;;;;;;;;4997012;28;52130;-46
2022/12/03 15:12:44;;;;;;;;;15.50;14.00;;;;;;;;4997236;28;51176;-49
2022/12/03 15:15:28;;;;;;;;;17.25;15.25;;;;;;;;4996994;28;51569;-47
2022/12/03 15:18:12;;;;;;;;;18.75;17.25;;;;;;;;4996905;28;51090;-48
2022/12/03 15:20:56;;;;;;;;;15.25;12.25;;;;;;;;4996930;28;51166;-46
2022/12/03 15:23:41;;;;;;;;;17.25;12.75;;;;;;;;4997151;28;51094;-46
2022/12/03 15:26:25;;;;;;;;;15.00;13.50;;;;;;;;4996813;28;51529;-46
2022/12/03 15:29:09;;;;;;;;;16.00;14.75;;;;;;;;5039026;28;51409;-48
2022/12/03 15:31:54;;;;;;;;;15.25;15.25;;;;;;;;5039322;28;51046;-48
2022/12/03 15:34:38;;;;;;;;;16.50;12.25;;;;;;;;5042236;28;51114;-47
2022/12/03 15:37:26;;;;;;;;;18.75;18.25;;;;;;;;5042545;28;51260;-46
2022/12/03 15:40:10;;;;;;;;;14.50;13.75;;;;;;;;5042571;28;51107;-46
2022/12/03 15:42:55;;;;;;;;;21.75;13.00;;;;;;;;5043218;28;51067;-49
2022/12/03 15:45:39;;;;;;;;;18.00;14.75;;;;;;;;5042422;28;51321;-45
2022/12/03 15:48:24;;;;;;;;;16.00;14.25;;;;;;;;5042484;28;51219;-46
2022/12/03 15:51:08;;;;;;;;;18.25;13.50;;;;;;;;5042684;28;51419;-47
2022/12/03 15:53:52;;;;;;;;;18.50;15.25;;;;;;;;5042588;28;51094;-45
2022/12/03 15:56:37;;;;;;;;;17.00;15.25;;;;;;;;5042750;28;51049;-47
2022/12/03 15:59:22;;;;;;;;;17.25;15.75;;;;;;;;5042202;28;50998;-48
2022/12/03 16:02:06;;;;;;;;;14.25;13.00;;;;;;;;5042533;28;51067;-45
2022/12/03 16:04:51;;;;;;;;;18.25;12.00;;;;;;;;5042454;28;51102;-45
2022/12/03 16:07:36;;;;;;;;;12.75;11.25;;;;;;;;5042480;28;51030;-46
2022/12/03 16:10:20;;;;;;;;;16.25;13.50;;;;;;;;5042149;28;51029;-49
2022/12/03 16:13:04;;;;;;;;;15.25;14.00;;;;;;;;5042525;28;51131;-48
2022/12/03 16:15:49;;;;;;;;;17.50;14.25;;;;;;;;5042449;28;51116;-45
2022/12/03 16:18:33;;;;;;;;;18.00;14.50;;;;;;;;5041686;28;51042;-46
2022/12/03 16:21:17;;;;;;;;;15.25;14.25;;;;;;;;5042410;28;51014;-46
2022/12/03 16:24:02;;;;;;;;;19.25;18.00;;;;;;;;5041927;28;51169;-45
2022/12/03 16:26:46;;;;;;;;;16.50;12.75;;;;;;;;5041744;28;51070;-44
2022/12/03 16:29:31;;;;;;;;;17.25;15.00;;;;;;;;5041717;28;50984;-47
2022/12/03 16:32:15;;;;;;;;;18.75;15.75;;;;;;;;5042165;28;51176;-48
2022/12/03 16:35:00;;;;;;;;;18.75;14.00;;;;;;;;5041718;28;51144;-46
2022/12/03 16:37:44;;;;;;;;;16.25;12.25;;;;;;;;5041564;28;51218;-47
2022/12/03 16:40:29;;;;;;;;;20.25;17.25;;;;;;;;5041647;28;51043;-48
2022/12/03 16:43:13;;;;;;;;;24.00;18.00;;;;;;;;5041597;28;51153;-47